createdAt,value
2019-02-11T00:00:21.699Z,25.4
2019-02-11T00:01:11.971Z,25.2
2019-02-11T00:02:02.121Z,25.1
2019-02-11T00:02:51.843Z,25
2019-02-11T00:03:41.872Z,25
2019-02-11T00:04:31.933Z,25
2019-02-11T00:05:21.711Z,25
2019-02-11T00:06:12.340Z,25
2019-02-11T00:07:01.854Z,25.1
2019-02-11T00:07:51.618Z,25.1
2019-02-11T00:08:42.496Z,25.3
2019-02-11T00:09:31.997Z,25.3
2019-02-11T00:10:22.631Z,25.4
2019-02-11T00:11:13.016Z,25.6
2019-02-11T00:12:01.618Z,25.6
2019-02-11T00:12:52.233Z,25.8
2019-02-11T00:13:42.903Z,25.8
2019-02-11T00:14:32.075Z,25.9
2019-02-11T00:15:22.115Z,26.1
2019-02-11T00:16:13.021Z,26.1
2019-02-11T00:17:03.410Z,26.2
2019-02-11T00:17:52.911Z,26.3
2019-02-11T00:18:43.248Z,26.4
2019-02-11T00:19:33.600Z,26.4
2019-02-11T00:20:22.814Z,26.4
2019-02-11T00:21:12.803Z,26.3
2019-02-11T00:22:03.442Z,26.2
2019-02-11T00:22:52.940Z,26.1
2019-02-11T00:23:43.252Z,25.9
2019-02-11T00:24:33.105Z,25.8
2019-02-11T00:25:22.552Z,25.7
2019-02-11T00:26:12.907Z,25.6
2019-02-11T00:27:02.970Z,25.4
2019-02-11T00:27:53.655Z,25.4
2019-02-11T00:28:43.942Z,25.3
2019-02-11T00:29:34.015Z,25.1
2019-02-11T00:30:24.275Z,25
2019-02-11T00:31:14.604Z,25
2019-02-11T00:32:04.455Z,25
2019-02-11T00:32:54.986Z,25
2019-02-11T00:33:44.257Z,25.1
2019-02-11T00:34:33.805Z,25.1
2019-02-11T00:35:23.807Z,25.2
2019-02-11T00:36:13.589Z,25.3
2019-02-11T00:37:04.517Z,25.4
2019-02-11T00:37:54.015Z,25.4
2019-02-11T00:38:44.067Z,25.6
2019-02-11T00:39:33.974Z,25.7
2019-02-11T00:40:24.169Z,25.8
2019-02-11T00:41:13.962Z,25.8
2019-02-11T00:42:03.739Z,25.8
2019-02-11T00:42:54.631Z,25.8
2019-02-11T00:43:44.670Z,25.7
2019-02-11T00:44:33.884Z,25.8
2019-02-11T00:45:24.504Z,25.6
2019-02-11T00:46:14.831Z,25.6
2019-02-11T00:47:04.651Z,25.6
2019-02-11T00:47:54.116Z,25.6
2019-02-11T00:48:44.754Z,25.6
2019-02-11T00:49:33.703Z,25.6
2019-02-11T00:50:25.468Z,25.6
2019-02-11T00:51:14.906Z,25.7
2019-02-11T00:52:04.709Z,25.7
2019-02-11T00:52:55.867Z,25.8
2019-02-11T00:53:43.986Z,25.9
2019-02-11T00:54:35.430Z,26
2019-02-11T00:55:25.825Z,26.1
2019-02-11T00:56:15.805Z,26.2
2019-02-11T00:57:05.614Z,26.3
2019-02-11T00:57:55.673Z,26.4
2019-02-11T00:58:45.170Z,26.4
2019-02-11T00:59:35.518Z,26.4
2019-02-11T01:00:25.360Z,26.4
2019-02-11T01:01:16.500Z,26.4
2019-02-11T01:02:05.115Z,26.2
2019-02-11T01:02:56.288Z,26.1
2019-02-11T01:03:46.092Z,26
2019-02-11T01:04:36.154Z,25.9
2019-02-11T01:05:25.920Z,25.8
2019-02-11T01:06:15.716Z,25.7
2019-02-11T01:07:08.219Z,25.6
2019-02-11T01:07:56.089Z,25.5
2019-02-11T01:08:45.872Z,25.4
2019-02-11T01:09:36.462Z,25.3
2019-02-11T01:10:26.030Z,25.2
2019-02-11T01:11:16.673Z,25.1
2019-02-11T01:12:06.375Z,25.1
2019-02-11T01:12:55.864Z,25
2019-02-11T01:13:45.997Z,25.1
2019-02-11T01:14:35.729Z,25.1
2019-02-11T01:15:25.764Z,25.2
2019-02-11T01:16:17.219Z,25.3
2019-02-11T01:17:06.735Z,25.3
2019-02-11T01:17:57.152Z,25.4
2019-02-11T01:18:46.364Z,25.5
2019-02-11T01:19:37.449Z,25.6
2019-02-11T01:20:26.689Z,25.8
2019-02-11T01:21:16.732Z,25.9
2019-02-11T01:22:07.664Z,25.9
2019-02-11T01:22:56.855Z,26.1
2019-02-11T01:23:46.359Z,26.1
2019-02-11T01:24:37.238Z,26.3
2019-02-11T01:25:26.749Z,26.3
2019-02-11T01:26:17.369Z,26.4
2019-02-11T01:27:07.967Z,26.4
2019-02-11T01:27:57.779Z,26.5
2019-02-11T01:28:47.598Z,26.5
2019-02-11T01:29:37.603Z,26.4
2019-02-11T01:30:28.258Z,26.3
2019-02-11T01:31:17.453Z,26.1
2019-02-11T01:32:07.753Z,26
2019-02-11T01:32:57.548Z,25.9
2019-02-11T01:33:48.486Z,25.8
2019-02-11T01:34:37.966Z,25.7
2019-02-11T01:35:28.556Z,25.6
2019-02-11T01:36:17.778Z,25.6
2019-02-11T01:37:07.563Z,25.4
2019-02-11T01:37:58.488Z,25.3
2019-02-11T01:38:48.522Z,25.2
2019-02-11T01:39:38.097Z,25.1
2019-02-11T01:40:28.413Z,25.1
2019-02-11T01:41:18.413Z,25.1
2019-02-11T01:42:08.283Z,25.1
2019-02-11T01:42:58.823Z,25.2
2019-02-11T01:43:48.847Z,25.3
2019-02-11T01:44:38.362Z,25.3
2019-02-11T01:45:28.722Z,25.4
2019-02-11T01:46:18.785Z,25.5
2019-02-11T01:47:08.042Z,25.6
2019-02-11T01:47:58.347Z,25.8
2019-02-11T01:48:49.500Z,25.8
2019-02-11T01:49:39.566Z,25.9
2019-02-11T01:50:29.349Z,26
2019-02-11T01:51:19.728Z,26.1
2019-02-11T01:52:08.411Z,26.2
2019-02-11T01:53:00.152Z,26.3
2019-02-11T01:53:49.877Z,26.4
2019-02-11T01:54:40.179Z,26.4
2019-02-11T01:55:29.411Z,26.5
2019-02-11T01:56:19.544Z,26.6
2019-02-11T01:57:09.519Z,26.4
2019-02-11T01:57:59.859Z,26.3
2019-02-11T01:58:49.141Z,26.3
2019-02-11T01:59:39.986Z,26.1
2019-02-11T02:00:29.489Z,26
2019-02-11T02:01:20.071Z,25.9
2019-02-11T02:02:10.162Z,25.8
2019-02-11T02:03:00.259Z,25.7
2019-02-11T02:03:50.281Z,25.6
2019-02-11T02:04:40.621Z,25.6
2019-02-11T02:05:29.843Z,25.4
2019-02-11T02:06:20.454Z,25.3
2019-02-11T02:07:10.801Z,25.2
2019-02-11T02:08:00.566Z,25.2
2019-02-11T02:08:50.906Z,25.1
2019-02-11T02:09:39.848Z,25.1
2019-02-11T02:10:30.184Z,25.2
2019-02-11T02:11:20.524Z,25.3
2019-02-11T02:12:10.869Z,25.3
2019-02-11T02:12:59.534Z,25.4
2019-02-11T02:13:51.148Z,25.4
2019-02-11T02:14:41.018Z,25.6
2019-02-11T02:15:30.849Z,25.6
2019-02-11T02:16:21.428Z,25.8
2019-02-11T02:17:10.660Z,25.8
2019-02-11T02:18:01.031Z,25.9
2019-02-11T02:18:50.498Z,26
2019-02-11T02:19:40.548Z,26.1
2019-02-11T02:20:31.715Z,26.2
2019-02-11T02:21:21.795Z,26.3
2019-02-11T02:22:10.581Z,26.4
2019-02-11T02:23:01.955Z,26.4
2019-02-11T02:23:51.957Z,26.5
2019-02-11T02:24:41.447Z,26.6
2019-02-11T02:25:32.060Z,26.5
2019-02-11T02:26:21.110Z,26.4
2019-02-11T02:27:11.642Z,26.3
2019-02-11T02:28:01.973Z,26.1
2019-02-11T02:28:51.748Z,26
2019-02-11T02:29:42.369Z,25.9
2019-02-11T02:30:31.730Z,25.8
2019-02-11T02:31:21.929Z,25.7
2019-02-11T02:32:12.297Z,25.6
2019-02-11T02:33:02.718Z,25.5
2019-02-11T02:33:52.675Z,25.4
2019-02-11T02:34:42.513Z,25.3
2019-02-11T02:35:32.277Z,25.2
2019-02-11T02:36:22.353Z,25.2
2019-02-11T02:37:13.209Z,25.1
2019-02-11T02:38:03.018Z,25.2
2019-02-11T02:38:52.932Z,25.3
2019-02-11T02:39:42.518Z,25.3
2019-02-11T02:40:32.669Z,25.3
2019-02-11T02:41:22.679Z,25.4
2019-02-11T02:42:13.330Z,25.5
2019-02-11T02:43:03.371Z,25.6
2019-02-11T02:44:03.044Z,25.7
2019-02-11T02:44:42.174Z,25.9
2019-02-11T02:45:32.216Z,25.9
2019-02-11T02:46:22.319Z,25.9
2019-02-11T02:47:12.588Z,25.9
2019-02-11T02:48:02.655Z,25.9
2019-02-11T02:48:53.286Z,25.9
2019-02-11T02:49:43.308Z,25.8
2019-02-11T02:50:33.378Z,25.8
2019-02-11T02:51:23.488Z,25.8
2019-02-11T02:52:12.473Z,25.8
2019-02-11T02:53:03.317Z,25.8
2019-02-11T02:53:53.349Z,25.7
2019-02-11T02:54:43.396Z,25.6
2019-02-11T02:55:32.885Z,25.6
2019-02-11T02:56:22.990Z,25.6
2019-02-11T02:57:13.881Z,25.7
2019-02-11T02:58:03.106Z,25.7
2019-02-11T02:58:53.766Z,25.8
2019-02-11T02:59:43.679Z,25.9
2019-02-11T03:00:34.340Z,26
2019-02-11T03:01:24.617Z,26.1
2019-02-11T03:02:14.133Z,26.2
2019-02-11T03:03:03.671Z,26.3
2019-02-11T03:03:53.866Z,26.3
2019-02-11T03:04:44.343Z,26.4
2019-02-11T03:08:16.757Z,26.4
2019-02-11T03:09:06.539Z,26.3
2019-02-11T03:09:57.438Z,26.1
2019-02-11T03:10:47.438Z,25.9
2019-02-11T03:11:37.307Z,25.9
2019-02-11T03:12:27.270Z,25.8
2019-02-11T03:13:17.333Z,25.7
2019-02-11T03:14:13.452Z,25.6
2019-02-11T03:14:57.254Z,25.6
2019-02-11T03:15:47.822Z,25.4
2019-02-11T03:16:36.205Z,25.3
2019-02-11T03:17:27.919Z,25.3
2019-02-11T03:18:17.813Z,25.2
2019-02-11T03:19:07.477Z,25.1
2019-02-11T03:19:57.265Z,25.1
2019-02-11T03:20:47.589Z,25.2
2019-02-11T03:21:37.909Z,25.2
2019-02-11T03:22:27.702Z,25.3
2019-02-11T03:23:17.797Z,25.3
2019-02-11T03:24:08.109Z,25.4
2019-02-11T03:24:57.586Z,25.5
2019-02-11T03:25:48.259Z,25.6
2019-02-11T03:26:37.956Z,25.7
2019-02-11T03:27:28.078Z,25.8
2019-02-11T03:28:18.378Z,25.9
2019-02-11T03:29:08.211Z,26
2019-02-11T03:29:58.611Z,26.1
2019-02-11T03:30:48.457Z,26.2
2019-02-11T03:31:38.853Z,26.3
2019-02-11T03:32:28.607Z,26.4
2019-02-11T03:33:19.104Z,26.4
2019-02-11T03:34:08.848Z,26.5
2019-02-11T03:34:58.882Z,26.6
2019-02-11T03:35:48.900Z,26.6
2019-02-11T03:36:38.749Z,26.5
2019-02-11T03:37:29.291Z,26.4
2019-02-11T03:38:19.138Z,26.3
2019-02-11T03:39:09.476Z,26.2
2019-02-11T03:39:59.221Z,26
2019-02-11T03:40:49.557Z,25.9
2019-02-11T03:41:39.310Z,25.8
2019-02-11T03:42:29.362Z,25.8
2019-02-11T03:43:19.744Z,25.7
2019-02-11T03:44:19.085Z,25.6
2019-02-11T03:44:59.015Z,25.5
2019-02-11T03:45:49.352Z,25.4
2019-02-11T03:46:39.493Z,25.3
2019-02-11T03:47:29.743Z,25.2
2019-02-11T03:48:19.537Z,25.2
2019-02-11T03:49:09.484Z,25.2
2019-02-11T03:49:59.131Z,25.2
2019-02-11T03:50:49.207Z,25.3
2019-02-11T03:51:38.997Z,25.3
2019-02-11T03:52:29.112Z,25.3
2019-02-11T03:53:19.983Z,25.4
2019-02-11T03:54:09.424Z,25.5
2019-02-11T03:55:00.348Z,25.6
2019-02-11T03:55:49.840Z,25.7
2019-02-11T03:56:39.636Z,25.8
2019-02-11T03:57:29.714Z,25.9
2019-02-11T03:58:19.774Z,26
2019-02-11T03:59:10.425Z,26.1
2019-02-11T04:00:00.306Z,26.2
2019-02-11T04:00:50.395Z,26.3
2019-02-11T04:01:40.455Z,26.4
2019-02-11T04:02:30.508Z,26.4
2019-02-11T04:03:20.876Z,26.5
2019-02-11T04:04:10.726Z,26.6
2019-02-11T04:05:00.781Z,26.6
2019-02-11T04:05:50.185Z,26.6
2019-02-11T04:06:40.812Z,26.5
2019-02-11T04:07:30.622Z,26.4
2019-02-11T04:08:20.345Z,26.3
2019-02-11T04:09:11.629Z,26.1
2019-02-11T04:10:01.529Z,26
2019-02-11T04:10:51.103Z,25.9
2019-02-11T04:11:41.432Z,25.8
2019-02-11T04:12:31.282Z,25.8
2019-02-11T04:13:21.290Z,25.7
2019-02-11T04:14:11.628Z,25.6
2019-02-11T04:15:02.208Z,25.4
2019-02-11T04:15:51.474Z,25.3
2019-02-11T04:16:41.760Z,25.3
2019-02-11T04:17:31.019Z,25.3
2019-02-11T04:18:22.195Z,25.2
2019-02-11T04:19:12.328Z,25.3
2019-02-11T04:20:02.219Z,25.3
2019-02-11T04:20:54.581Z,25.3
2019-02-11T04:21:41.953Z,25.4
2019-02-11T04:22:31.902Z,25.4
2019-02-11T04:23:22.311Z,25.5
2019-02-11T04:24:12.672Z,25.6
2019-02-11T04:25:01.940Z,25.7
2019-02-11T04:25:52.242Z,25.8
2019-02-11T04:26:42.212Z,25.9
2019-02-11T04:27:31.680Z,26
2019-02-11T04:28:22.887Z,26.1
2019-02-11T04:29:12.929Z,26.2
2019-02-11T04:30:02.748Z,26.3
2019-02-11T04:30:53.194Z,26.4
2019-02-11T04:31:42.345Z,26.4
2019-02-11T04:32:32.094Z,26.5
2019-02-11T04:33:22.742Z,26.6
2019-02-11T04:34:12.223Z,26.6
2019-02-11T04:35:02.678Z,26.7
2019-02-11T04:35:52.882Z,26.7
2019-02-11T04:36:43.252Z,26.7
2019-02-11T04:37:32.949Z,26.6
2019-02-11T04:38:23.296Z,26.6
2019-02-11T04:39:12.815Z,26.5
2019-02-11T04:40:02.765Z,26.4
2019-02-11T04:40:52.951Z,26.4
2019-02-11T04:41:43.236Z,26.3
2019-02-11T04:42:32.794Z,26.3
2019-02-11T04:43:23.735Z,26.3
2019-02-11T04:44:13.444Z,26.2
2019-02-11T04:45:03.783Z,26.1
2019-02-11T04:45:53.808Z,26.1
2019-02-11T04:46:43.873Z,26
2019-02-11T04:47:33.166Z,26.1
2019-02-11T04:48:23.746Z,26.1
2019-02-11T04:49:13.816Z,26.1
2019-02-11T04:50:04.284Z,26.3
2019-02-11T04:50:54.204Z,26.3
2019-02-11T04:51:43.406Z,26.3
2019-02-11T04:52:34.603Z,26.4
2019-02-11T04:53:24.083Z,26.5
2019-02-11T04:54:14.478Z,26.6
2019-02-11T04:55:04.655Z,26.6
2019-02-11T04:55:54.349Z,26.6
2019-02-11T04:56:44.597Z,26.4
2019-02-11T04:57:34.939Z,26.3
2019-02-11T04:58:23.882Z,26.1
2019-02-11T04:59:14.599Z,26
2019-02-11T05:00:05.402Z,25.9
2019-02-11T05:00:54.870Z,25.8
2019-02-11T05:01:44.123Z,25.6
2019-02-11T05:02:33.930Z,25.6
2019-02-11T05:03:24.530Z,25.6
2019-02-11T05:04:15.413Z,25.4
2019-02-11T05:05:05.135Z,25.3
2019-02-11T05:05:55.529Z,25.2
2019-02-11T05:06:45.705Z,25.1
2019-02-11T05:07:35.169Z,25.2
2019-02-11T05:08:25.249Z,25.2
2019-02-11T05:09:15.796Z,25.2
2019-02-11T05:10:05.850Z,25.3
2019-02-11T05:10:55.586Z,25.3
2019-02-11T05:11:45.669Z,25.4
2019-02-11T05:12:35.479Z,25.4
2019-02-11T05:13:26.089Z,25.6
2019-02-11T05:14:15.914Z,25.6
2019-02-11T05:15:05.670Z,25.8
2019-02-11T05:15:55.484Z,25.9
2019-02-11T05:16:45.746Z,25.9
2019-02-11T05:17:36.054Z,26.1
2019-02-11T05:18:25.859Z,26.1
2019-02-11T05:19:16.484Z,26.3
2019-02-11T05:20:05.425Z,26.3
2019-02-11T05:20:56.770Z,26.4
2019-02-11T05:21:45.563Z,26.5
2019-02-11T05:22:36.122Z,26.5
2019-02-11T05:23:26.489Z,26.6
2019-02-11T05:24:16.841Z,26.5
2019-02-11T05:25:06.916Z,26.4
2019-02-11T05:25:56.214Z,26.3
2019-02-11T05:26:46.731Z,26.1
2019-02-11T05:27:36.260Z,26
2019-02-11T05:28:26.907Z,25.9
2019-02-11T05:29:16.336Z,25.8
2019-02-11T05:30:07.107Z,25.6
2019-02-11T05:30:56.150Z,25.6
2019-02-11T05:31:47.407Z,25.5
2019-02-11T05:32:36.921Z,25.4
2019-02-11T05:33:27.386Z,25.3
2019-02-11T05:34:17.074Z,25.3
2019-02-11T05:35:08.062Z,25.1
2019-02-11T05:35:57.099Z,25.1
2019-02-11T05:36:46.890Z,25.2
2019-02-11T05:37:37.467Z,25.2
2019-02-11T05:38:27.009Z,25.2
2019-02-11T05:39:16.873Z,25.3
2019-02-11T05:40:07.860Z,25.3
2019-02-11T05:40:57.440Z,25.4
2019-02-11T05:41:47.296Z,25.4
2019-02-11T05:42:37.539Z,25.6
2019-02-11T05:43:27.922Z,25.6
2019-02-11T05:44:17.090Z,25.8
2019-02-11T05:45:08.075Z,25.9
2019-02-11T05:45:57.792Z,25.9
2019-02-11T05:46:48.350Z,26.1
2019-02-11T05:47:38.208Z,26.1
2019-02-11T05:48:27.363Z,26.2
2019-02-11T05:49:18.262Z,26.3
2019-02-11T05:50:07.860Z,26.4
2019-02-11T05:50:58.112Z,26.4
2019-02-11T05:51:48.512Z,26.6
2019-02-11T05:52:38.835Z,26.6
2019-02-11T05:53:28.332Z,26.6
2019-02-11T05:54:18.912Z,26.5
2019-02-11T05:55:08.434Z,26.3
2019-02-11T05:55:58.507Z,26.2
2019-02-11T05:56:48.787Z,26
2019-02-11T05:57:38.069Z,25.9
2019-02-11T05:58:28.959Z,25.8
2019-02-11T05:59:18.654Z,25.7
2019-02-11T06:00:08.446Z,25.6
2019-02-11T06:00:58.541Z,25.5
2019-02-11T06:01:48.897Z,25.5
2019-02-11T06:02:38.904Z,25.4
2019-02-11T06:03:29.364Z,25.3
2019-02-11T06:06:16.116Z,25.2
2019-02-11T06:07:06.329Z,25.2
2019-02-11T06:07:56.972Z,25.3
2019-02-11T06:08:46.162Z,25.3
2019-02-11T06:09:36.766Z,25.3
2019-02-11T06:10:26.619Z,25.4
2019-02-11T06:11:16.362Z,25.5
2019-02-11T06:12:07.276Z,25.6
2019-02-11T06:12:57.520Z,25.7
2019-02-11T06:13:46.718Z,25.8
2019-02-11T06:14:36.882Z,25.9
2019-02-11T06:15:27.143Z,26
2019-02-11T06:16:17.518Z,26.1
2019-02-11T06:17:07.269Z,26.2
2019-02-11T06:17:56.841Z,26.3
2019-02-11T06:18:46.086Z,26.3
2019-02-11T06:19:36.585Z,26.4
2019-02-11T06:20:27.518Z,26.5
2019-02-11T06:21:17.803Z,26.6
2019-02-11T06:22:08.133Z,26.6
2019-02-11T06:22:57.387Z,26.6
2019-02-11T06:23:47.438Z,26.4
2019-02-11T06:24:37.755Z,26.3
2019-02-11T06:25:28.356Z,26.2
2019-02-11T06:26:18.150Z,26
2019-02-11T06:27:07.282Z,25.9
2019-02-11T06:27:57.457Z,25.8
2019-02-11T06:28:48.153Z,25.7
2019-02-11T06:29:38.416Z,25.6
2019-02-11T06:30:27.940Z,25.5
2019-02-11T06:31:18.255Z,25.4
2019-02-11T06:32:08.955Z,25.3
2019-02-11T06:32:58.092Z,25.3
2019-02-11T06:33:47.599Z,25.1
2019-02-11T06:34:39.778Z,25.2
2019-02-11T06:35:28.549Z,25.2
2019-02-11T06:36:19.063Z,25.2
2019-02-11T06:37:08.147Z,25.3
2019-02-11T06:37:58.459Z,25.4
2019-02-11T06:38:48.812Z,25.4
2019-02-11T06:39:39.117Z,25.5
2019-02-11T06:40:28.984Z,25.6
2019-02-11T06:41:18.401Z,25.6
2019-02-11T06:42:09.067Z,25.8
2019-02-11T06:42:58.770Z,25.9
2019-02-11T06:43:49.124Z,25.9
2019-02-11T06:44:38.649Z,25.9
2019-02-11T06:45:28.927Z,25.9
2019-02-11T06:46:19.011Z,25.9
2019-02-11T06:47:09.891Z,25.9
2019-02-11T06:47:59.691Z,25.9
2019-02-11T06:48:49.452Z,25.8
2019-02-11T06:49:39.238Z,25.8
2019-02-11T06:50:29.588Z,25.8
2019-02-11T06:51:18.821Z,25.8
2019-02-11T06:52:08.571Z,25.7
2019-02-11T06:52:59.806Z,25.7
2019-02-11T06:53:49.256Z,25.6
2019-02-11T06:54:39.351Z,25.6
2019-02-11T06:55:28.858Z,25.6
2019-02-11T06:56:19.433Z,25.7
2019-02-11T06:57:11.769Z,25.6
2019-02-11T06:58:00.431Z,25.5
2019-02-11T06:58:49.865Z,25.4
2019-02-11T06:59:40.205Z,25.3
2019-02-11T07:00:29.505Z,25.2
2019-02-11T07:01:34.493Z,25.1
2019-02-11T07:02:09.830Z,24.9
2019-02-11T07:02:59.925Z,24.9
2019-02-11T07:03:50.240Z,24.8
2019-02-11T07:06:16.458Z,24.8
2019-02-11T07:07:06.767Z,24.7
2019-02-11T07:07:56.270Z,24.6
2019-02-11T07:08:46.625Z,24.5
2019-02-11T07:09:36.987Z,24.4
2019-02-11T07:10:27.010Z,24.4
2019-02-11T07:11:15.998Z,24.3
2019-02-11T07:12:06.310Z,24.3
2019-02-11T07:12:57.187Z,24.5
2019-02-11T07:13:46.969Z,24.6
2019-02-11T07:14:37.307Z,24.6
2019-02-11T07:15:29.242Z,24.7
2019-02-11T07:16:17.480Z,24.8
2019-02-11T07:17:06.997Z,24.9
2019-02-11T07:17:56.726Z,24.9
2019-02-11T07:18:47.329Z,25
2019-02-11T07:19:37.642Z,25.1
2019-02-11T07:20:26.984Z,25.1
2019-02-11T07:21:16.645Z,25.3
2019-02-11T07:22:07.573Z,25.3
2019-02-11T07:22:57.043Z,25.2
2019-02-11T07:23:47.394Z,25.1
2019-02-11T07:24:38.281Z,25
2019-02-11T07:25:27.810Z,24.9
2019-02-11T07:26:17.840Z,24.8
2019-02-11T07:27:07.614Z,24.7
2019-02-11T07:27:58.279Z,24.6
2019-02-11T07:28:48.329Z,24.6
2019-02-11T07:29:37.766Z,24.5
2019-02-11T07:30:26.813Z,24.5
2019-02-11T07:31:18.439Z,24.4
2019-02-11T07:32:08.539Z,24.4
2019-02-11T07:32:58.893Z,24.3
2019-02-11T07:33:47.263Z,24.2
2019-02-11T07:34:37.614Z,24.2
2019-02-11T07:35:29.054Z,24.1
2019-02-11T07:36:20.706Z,24.1
2019-02-11T07:37:08.690Z,24.3
2019-02-11T07:37:59.493Z,24.3
2019-02-11T07:38:48.501Z,24.4
2019-02-11T07:39:38.788Z,24.4
2019-02-11T07:40:28.568Z,24.6
2019-02-11T07:41:19.141Z,24.6
2019-02-11T07:42:10.348Z,24.7
2019-02-11T07:42:58.428Z,24.8
2019-02-11T07:43:48.256Z,24.8
2019-02-11T07:44:37.982Z,24.9
2019-02-11T07:45:37.395Z,25
2019-02-11T07:46:19.490Z,25
2019-02-11T07:47:09.262Z,25
2019-02-11T07:47:59.067Z,24.9
2019-02-11T07:48:48.577Z,24.8
2019-02-11T07:49:38.978Z,24.7
2019-02-11T07:50:29.030Z,24.6
2019-02-11T07:51:18.549Z,24.5
2019-02-11T07:52:09.449Z,24.4
2019-02-11T07:52:59.499Z,24.3
2019-02-11T07:53:49.505Z,24.3
2019-02-11T07:54:40.130Z,24.2
2019-02-11T07:55:29.584Z,24.3
2019-02-11T07:56:20.534Z,24.2
2019-02-11T07:57:09.976Z,24.1
2019-02-11T07:58:00.016Z,24.1
2019-02-11T07:58:49.835Z,24
2019-02-11T07:59:40.434Z,23.9
2019-02-11T08:00:30.505Z,23.9
2019-02-11T08:01:20.499Z,24.1
2019-02-11T08:02:10.099Z,24.1
2019-02-11T08:03:00.412Z,24.1
2019-02-11T08:03:50.169Z,24.3
2019-02-11T08:04:40.851Z,24.3
2019-02-11T08:05:30.071Z,24.4
2019-02-11T08:06:20.919Z,24.5
2019-02-11T08:07:10.164Z,24.5
2019-02-11T08:08:01.009Z,24.6
2019-02-11T08:08:51.106Z,24.8
2019-02-11T08:09:40.286Z,24.8
2019-02-11T08:10:30.656Z,24.9
2019-02-11T08:11:20.951Z,24.9
2019-02-11T08:12:10.051Z,24.8
2019-02-11T08:13:01.144Z,24.8
2019-02-11T08:13:49.808Z,24.6
2019-02-11T08:14:41.186Z,24.5
2019-02-11T08:15:38.890Z,24.5
2019-02-11T08:16:21.881Z,24.4
2019-02-11T08:17:11.448Z,24.3
2019-02-11T08:18:03.436Z,24.3
2019-02-11T08:18:51.243Z,24.3
2019-02-11T08:19:41.588Z,24.2
2019-02-11T08:20:31.328Z,24.1
2019-02-11T08:21:21.922Z,24.1
2019-02-11T08:22:10.968Z,24
2019-02-11T08:23:00.737Z,23.9
2019-02-11T08:23:51.413Z,23.8
2019-02-11T08:24:41.675Z,23.8
2019-02-11T08:25:31.755Z,23.9
2019-02-11T08:26:21.232Z,24
2019-02-11T08:27:11.584Z,24.1
2019-02-11T08:28:01.147Z,24.1
2019-02-11T08:28:51.957Z,24.3
2019-02-11T08:29:41.772Z,24.3
2019-02-11T08:30:31.807Z,24.4
2019-02-11T08:31:22.150Z,24.4
2019-02-11T08:32:12.452Z,24.6
2019-02-11T08:33:02.580Z,24.6
2019-02-11T08:33:52.029Z,24.8
2019-02-11T08:34:42.412Z,24.8
2019-02-11T08:35:33.819Z,24.8
2019-02-11T08:36:22.151Z,24.7
2019-02-11T08:37:12.377Z,24.6
2019-02-11T08:38:02.030Z,24.6
2019-02-11T08:38:52.927Z,24.4
2019-02-11T08:39:42.432Z,24.4
2019-02-11T08:40:31.674Z,24.3
2019-02-11T08:41:22.827Z,24.2
2019-02-11T08:42:12.606Z,24.1
2019-02-11T08:43:02.681Z,24.2
2019-02-11T08:43:53.286Z,24.1
2019-02-11T08:44:42.219Z,24
2019-02-11T08:45:33.129Z,23.9
2019-02-11T08:46:22.634Z,23.9
2019-02-11T08:47:13.248Z,23.8
2019-02-11T08:48:02.484Z,23.8
2019-02-11T08:48:53.609Z,23.8
2019-02-11T08:49:43.558Z,23.9
2019-02-11T08:50:34.348Z,23.9
2019-02-11T08:51:23.541Z,24.1
2019-02-11T08:52:13.029Z,24.1
2019-02-11T08:53:02.539Z,24.2
2019-02-11T08:53:52.862Z,24.3
2019-02-11T08:54:43.191Z,24.3
2019-02-11T08:55:33.266Z,24.4
2019-02-11T08:56:23.861Z,24.6
2019-02-11T08:57:14.118Z,24.6
2019-02-11T08:58:04.008Z,24.8
2019-02-11T08:58:53.819Z,24.8
2019-02-11T08:59:43.828Z,24.8
2019-02-11T09:00:33.805Z,24.7
2019-02-11T09:01:24.738Z,24.6
2019-02-11T09:02:14.297Z,24.4
2019-02-11T09:03:04.855Z,24.4
2019-02-11T09:03:53.555Z,24.3
2019-02-11T09:04:44.448Z,24.2
2019-02-11T09:05:33.955Z,24.1
2019-02-11T09:06:24.399Z,24.1
2019-02-11T09:07:13.845Z,24
2019-02-11T09:08:07.165Z,24
2019-02-11T09:08:54.167Z,23.9
2019-02-11T09:09:44.766Z,23.9
2019-02-11T09:10:34.918Z,23.8
2019-02-11T09:11:25.115Z,23.8
2019-02-11T09:12:15.189Z,23.8
2019-02-11T09:13:05.022Z,23.7
2019-02-11T09:13:55.283Z,23.8
2019-02-11T09:14:45.628Z,23.8
2019-02-11T09:15:35.185Z,23.9
2019-02-11T09:16:26.074Z,23.9
2019-02-11T09:17:17.614Z,24
2019-02-11T09:18:06.161Z,24.1
2019-02-11T09:18:55.342Z,24.2
2019-02-11T09:19:45.241Z,24.3
2019-02-11T09:20:34.922Z,24.3
2019-02-11T09:21:25.809Z,24.4
2019-02-11T09:22:15.576Z,24.6
2019-02-11T09:23:05.139Z,24.7
2019-02-11T09:23:56.263Z,24.7
2019-02-11T09:24:46.020Z,24.7
2019-02-11T09:25:36.364Z,24.6
2019-02-11T09:26:25.884Z,24.5
2019-02-11T09:27:16.482Z,24.4
2019-02-11T09:28:06.534Z,24.3
2019-02-11T09:28:56.075Z,24.3
2019-02-11T09:29:46.366Z,24.1
2019-02-11T09:30:35.403Z,24.1
2019-02-11T09:31:26.493Z,24
2019-02-11T09:32:16.269Z,24
2019-02-11T09:33:06.148Z,23.9
2019-02-11T09:33:56.445Z,23.9
2019-02-11T09:34:45.363Z,23.8
2019-02-11T09:35:36.826Z,23.8
2019-02-11T09:36:26.368Z,23.8
2019-02-11T09:37:17.439Z,23.7
2019-02-11T09:38:05.856Z,23.6
2019-02-11T09:38:56.746Z,23.8
2019-02-11T09:39:46.858Z,23.8
2019-02-11T09:40:37.213Z,23.8
2019-02-11T09:41:27.228Z,23.9
2019-02-11T09:42:17.081Z,23.9
2019-02-11T09:43:07.313Z,24.1
2019-02-11T09:43:57.446Z,24.1
2019-02-11T09:44:47.971Z,24.2
2019-02-11T09:45:36.950Z,24.3
2019-02-11T09:46:27.313Z,24.4
2019-02-11T09:47:17.890Z,24.5
2019-02-11T09:48:07.423Z,24.6
2019-02-11T09:48:56.697Z,24.7
2019-02-11T09:49:48.056Z,24.6
2019-02-11T09:50:37.005Z,24.6
2019-02-11T09:51:28.462Z,24.4
2019-02-11T09:52:17.398Z,24.3
2019-02-11T09:53:07.455Z,24.2
2019-02-11T09:53:58.070Z,24.1
2019-02-11T09:54:47.672Z,24
2019-02-11T09:55:38.169Z,23.9
2019-02-11T09:56:28.274Z,23.8
2019-02-11T09:57:18.010Z,23.8
2019-02-11T09:58:08.657Z,23.7
2019-02-11T09:58:58.550Z,23.6
2019-02-11T09:59:48.234Z,23.6
2019-02-11T10:00:37.779Z,23.6
2019-02-11T10:01:28.642Z,23.6
2019-02-11T10:02:18.938Z,23.6
2019-02-11T10:03:08.454Z,23.5
2019-02-11T10:03:57.685Z,23.6
2019-02-11T10:04:48.817Z,23.6
2019-02-11T10:07:15.725Z,23.8
2019-02-11T10:08:06.672Z,23.9
2019-02-11T10:08:56.681Z,23.9
2019-02-11T10:09:48.456Z,24
2019-02-11T10:10:37.119Z,24.1
2019-02-11T10:11:25.998Z,24.3
2019-02-11T10:12:25.086Z,24.3
2019-02-11T10:13:06.992Z,24.5
2019-02-11T10:13:56.754Z,24.6
2019-02-11T10:14:46.861Z,24.6
2019-02-11T10:15:36.398Z,24.5
2019-02-11T10:16:28.797Z,24.4
2019-02-11T10:17:16.973Z,24.3
2019-02-11T10:18:07.587Z,24.3
2019-02-11T10:18:56.809Z,24.1
2019-02-11T10:19:47.148Z,24.1
2019-02-11T10:20:36.690Z,24
2019-02-11T10:21:27.273Z,23.9
2019-02-11T10:22:17.315Z,23.9
2019-02-11T10:23:07.431Z,23.8
2019-02-11T10:23:57.710Z,23.8
2019-02-11T10:24:48.048Z,23.7
2019-02-11T10:25:37.285Z,23.7
2019-02-11T10:26:27.621Z,23.6
2019-02-11T10:27:17.438Z,23.6
2019-02-11T10:28:08.010Z,23.6
2019-02-11T10:28:57.815Z,23.5
2019-02-11T10:29:47.297Z,23.6
2019-02-11T10:30:38.220Z,23.6
2019-02-11T10:31:27.730Z,23.6
2019-02-11T10:32:18.843Z,23.7
2019-02-11T10:33:07.557Z,23.8
2019-02-11T10:33:58.687Z,23.8
2019-02-11T10:34:48.229Z,23.9
2019-02-11T10:35:46.629Z,24
2019-02-11T10:36:28.302Z,24.1
2019-02-11T10:37:18.354Z,24.2
2019-02-11T10:38:07.877Z,24.4
2019-02-11T10:38:57.667Z,24.4
2019-02-11T10:39:49.110Z,24.5
2019-02-11T10:40:38.094Z,24.5
2019-02-11T10:41:28.656Z,24.4
2019-02-11T10:42:19.027Z,24.3
2019-02-11T10:43:08.927Z,24.2
2019-02-11T10:43:58.849Z,24.1
2019-02-11T10:44:48.624Z,24.1
2019-02-11T10:45:43.459Z,23.9
2019-02-11T10:46:28.156Z,23.9
2019-02-11T10:47:18.542Z,23.9
2019-02-11T10:48:09.473Z,23.8
2019-02-11T10:48:58.631Z,23.8
2019-02-11T10:49:49.234Z,23.7
2019-02-11T10:50:39.679Z,23.6
2019-02-11T10:51:28.817Z,23.6
2019-02-11T10:52:18.843Z,23.6
2019-02-11T10:53:09.213Z,23.6
2019-02-11T10:53:59.265Z,23.5
2019-02-11T10:54:49.900Z,23.6
2019-02-11T10:55:39.106Z,23.6
2019-02-11T10:56:30.033Z,23.6
2019-02-11T10:57:19.490Z,23.6
2019-02-11T10:58:09.765Z,23.7
2019-02-11T10:58:59.918Z,23.8
2019-02-11T10:59:49.413Z,23.8
2019-02-11T11:00:40.265Z,23.9
2019-02-11T11:01:31.381Z,24
2019-02-11T11:02:19.333Z,24.2
2019-02-11T11:03:10.787Z,24.3
2019-02-11T11:03:59.959Z,24.4
2019-02-11T11:04:50.830Z,24.5
2019-02-11T11:05:40.105Z,24.4
2019-02-11T11:06:31.058Z,24.4
2019-02-11T11:07:20.198Z,24.3
2019-02-11T11:08:11.095Z,24.2
2019-02-11T11:09:00.860Z,24.1
2019-02-11T11:09:50.915Z,24
2019-02-11T11:10:39.874Z,23.9
2019-02-11T11:11:31.295Z,23.9
2019-02-11T11:12:19.703Z,23.8
2019-02-11T11:13:10.574Z,23.8
2019-02-11T11:14:00.438Z,23.8
2019-02-11T11:14:50.460Z,23.7
2019-02-11T11:15:40.547Z,23.6
2019-02-11T11:16:37.325Z,23.6